sensor_id;sensor_type;location;lat;lon;timestamp;pressure;altitude;pressure_sealevel;temperature;humidity
39223;BME280;24936;46.328;11.026;2023-05-12T00:01:23;94000.19;;;6.46;100.00
39223;BME280;24936;46.328;11.026;2023-05-12T00:03:49;93993.75;;;6.50;100.00
39223;BME280;24936;46.328;11.026;2023-05-12T00:06:17;93993.59;;;6.52;100.00
39223;BME280;24936;46.328;11.026;2023-05-12T00:08:43;93995.78;;;6.47;100.00
39223;BME280;24936;46.328;11.026;2023-05-12T00:11:08;93995.84;;;6.78;100.00
39223;BME280;24936;46.328;11.026;2023-05-12T00:13:34;93996.75;;;6.88;100.00
39223;BME280;24936;46.328;11.026;2023-05-12T00:16:01;93992.16;;;6.59;100.00
39223;BME280;24936;46.328;11.026;2023-05-12T00:18:26;93999.69;;;6.52;100.00
39223;BME280;24936;46.328;11.026;2023-05-12T00:20:53;93989.16;;;6.42;100.00
39223;BME280;24936;46.328;11.026;2023-05-12T00:23:19;93992.06;;;6.28;100.00
39223;BME280;24936;46.328;11.026;2023-05-12T00:25:45;93992.53;;;6.22;100.00
39223;BME280;24936;46.328;11.026;2023-05-12T00:28:10;93991.44;;;6.36;100.00
39223;BME280;24936;46.328;11.026;2023-05-12T00:30:36;93978.03;;;6.29;100.00
39223;BME280;24936;46.328;11.026;2023-05-12T00:33:01;93977.47;;;6.25;100.00
39223;BME280;24936;46.328;11.026;2023-05-12T00:35:27;93981.16;;;6.44;100.00
39223;BME280;24936;46.328;11.026;2023-05-12T00:37:53;93973.78;;;6.28;100.00
39223;BME280;24936;46.328;11.026;2023-05-12T00:40:18;93974.16;;;6.23;100.00
39223;BME280;24936;46.328;11.026;2023-05-12T00:42:44;93975.53;;;6.27;100.00
39223;BME280;24936;46.328;11.026;2023-05-12T00:45:10;93981.69;;;6.38;100.00
39223;BME280;24936;46.328;11.026;2023-05-12T00:47:35;93974.59;;;6.50;100.00
39223;BME280;24936;46.328;11.026;2023-05-12T00:50:02;93968.63;;;6.59;100.00
39223;BME280;24936;46.328;11.026;2023-05-12T00:52:28;93970.97;;;6.41;100.00
39223;BME280;24936;46.328;11.026;2023-05-12T00:54:54;93965.06;;;6.27;100.00
39223;BME280;24936;46.328;11.026;2023-05-12T00:57:21;93965.94;;;6.28;100.00
39223;BME280;24936;46.328;11.026;2023-05-12T00:59:46;93963.69;;;6.23;100.00
39223;BME280;24936;46.328;11.026;2023-05-12T01:02:12;93966.41;;;6.22;100.00
39223;BME280;24936;46.328;11.026;2023-05-12T01:04:38;93963.47;;;6.15;100.00
39223;BME280;24936;46.328;11.026;2023-05-12T01:07:23;93962.66;;;6.15;100.00
39223;BME280;24936;46.328;11.026;2023-05-12T01:09:56;93968.50;;;6.07;100.00
39223;BME280;24936;46.328;11.026;2023-05-12T01:12:25;93961.03;;;6.02;100.00
39223;BME280;24936;46.328;11.026;2023-05-12T01:14:53;93966.97;;;6.04;100.00
39223;BME280;24936;46.328;11.026;2023-05-12T01:17:22;93958.88;;;6.07;100.00
39223;BME280;24936;46.328;11.026;2023-05-12T01:19:55;93962.34;;;6.29;100.00
39223;BME280;24936;46.328;11.026;2023-05-12T01:22:23;93958.78;;;6.30;100.00
39223;BME280;24936;46.328;11.026;2023-05-12T01:24:53;93957.38;;;6.26;100.00
39223;BME280;24936;46.328;11.026;2023-05-12T01:27:20;93952.91;;;6.17;100.00
39223;BME280;24936;46.328;11.026;2023-05-12T01:29:48;93949.13;;;6.09;100.00
39223;BME280;24936;46.328;11.026;2023-05-12T01:32:14;93948.56;;;6.06;100.00
39223;BME280;24936;46.328;11.026;2023-05-12T01:34:41;93948.69;;;6.04;100.00
39223;BME280;24936;46.328;11.026;2023-05-12T01:37:10;93948.19;;;5.99;100.00
39223;BME280;24936;46.328;11.026;2023-05-12T01:39:36;93947.34;;;6.10;100.00
39223;BME280;24936;46.328;11.026;2023-05-12T01:42:03;93952.94;;;6.38;100.00
39223;BME280;24936;46.328;11.026;2023-05-12T01:44:28;93953.34;;;6.22;100.00
39223;BME280;24936;46.328;11.026;2023-05-12T01:46:54;93948.50;;;6.17;100.00
39223;BME280;24936;46.328;11.026;2023-05-12T01:49:20;93955.72;;;6.25;100.00
39223;BME280;24936;46.328;11.026;2023-05-12T01:51:46;93959.03;;;6.27;100.00
39223;BME280;24936;46.328;11.026;2023-05-12T01:54:11;93955.97;;;6.22;100.00
39223;BME280;24936;46.328;11.026;2023-05-12T01:56:37;93959.38;;;6.34;100.00
39223;BME280;24936;46.328;11.026;2023-05-12T01:59:02;93957.28;;;6.16;100.00
39223;BME280;24936;46.328;11.026;2023-05-12T02:01:28;93964.56;;;6.12;100.00
39223;BME280;24936;46.328;11.026;2023-05-12T02:03:54;93956.41;;;6.06;100.00
39223;BME280;24936;46.328;11.026;2023-05-12T02:06:20;93954.16;;;6.01;100.00
39223;BME280;24936;46.328;11.026;2023-05-12T02:08:46;93951.66;;;6.00;100.00
39223;BME280;24936;46.328;11.026;2023-05-12T02:11:12;93952.72;;;5.97;100.00
39223;BME280;24936;46.328;11.026;2023-05-12T02:13:37;93950.63;;;6.23;100.00
39223;BME280;24936;46.328;11.026;2023-05-12T02:16:03;93950.41;;;6.48;100.00
39223;BME280;24936;46.328;11.026;2023-05-12T02:18:29;93948.59;;;6.48;100.00
39223;BME280;24936;46.328;11.026;2023-05-12T02:20:54;93942.16;;;6.31;100.00
39223;BME280;24936;46.328;11.026;2023-05-12T02:23:20;93945.81;;;6.40;100.00
39223;BME280;24936;46.328;11.026;2023-05-12T02:25:46;93959.19;;;6.47;100.00
39223;BME280;24936;46.328;11.026;2023-05-12T02:28:11;93953.09;;;6.25;100.00
39223;BME280;24936;46.328;11.026;2023-05-12T02:30:37;93947.00;;;6.36;100.00
39223;BME280;24936;46.328;11.026;2023-05-12T02:33:03;93951.66;;;6.32;100.00
39223;BME280;24936;46.328;11.026;2023-05-12T02:35:32;93945.41;;;6.23;100.00
39223;BME280;24936;46.328;11.026;2023-05-12T02:37:58;93949.34;;;6.18;100.00
39223;BME280;24936;46.328;11.026;2023-05-12T02:40:23;93943.44;;;6.37;100.00
39223;BME280;24936;46.328;11.026;2023-05-12T02:42:49;93942.59;;;6.36;100.00
39223;BME280;24936;46.328;11.026;2023-05-12T02:45:14;93948.59;;;6.27;100.00
39223;BME280;24936;46.328;11.026;2023-05-12T02:47:40;93943.22;;;6.28;100.00
39223;BME280;24936;46.328;11.026;2023-05-12T02:50:06;93943.44;;;6.37;100.00
39223;BME280;24936;46.328;11.026;2023-05-12T02:52:31;93942.34;;;6.39;100.00
39223;BME280;24936;46.328;11.026;2023-05-12T02:54:57;93937.13;;;6.39;100.00
39223;BME280;24936;46.328;11.026;2023-05-12T02:57:22;93938.44;;;6.34;100.00
39223;BME280;24936;46.328;11.026;2023-05-12T02:59:48;93939.28;;;6.34;100.00
39223;BME280;24936;46.328;11.026;2023-05-12T03:02:13;93936.66;;;6.34;100.00
39223;BME280;24936;46.328;11.026;2023-05-12T03:04:39;93930.28;;;6.48;100.00
39223;BME280;24936;46.328;11.026;2023-05-12T03:07:04;93925.78;;;6.29;100.00
39223;BME280;24936;46.328;11.026;2023-05-12T03:09:30;93930.16;;;6.28;100.00
39223;BME280;24936;46.328;11.026;2023-05-12T03:11:55;93935.56;;;6.16;100.00
39223;BME280;24936;46.328;11.026;2023-05-12T03:14:20;93928.56;;;6.16;100.00
39223;BME280;24936;46.328;11.026;2023-05-12T03:16:46;93931.88;;;6.18;100.00
39223;BME280;24936;46.328;11.026;2023-05-12T03:19:11;93932.41;;;6.12;100.00
39223;BME280;24936;46.328;11.026;2023-05-12T03:21:37;93936.19;;;6.08;100.00
39223;BME280;24936;46.328;11.026;2023-05-12T03:24:03;93934.56;;;5.95;100.00
39223;BME280;24936;46.328;11.026;2023-05-12T03:26:28;93937.09;;;5.86;100.00
39223;BME280;24936;46.328;11.026;2023-05-12T03:28:54;93929.38;;;5.84;100.00
39223;BME280;24936;46.328;11.026;2023-05-12T03:31:19;93931.38;;;5.92;100.00
39223;BME280;24936;46.328;11.026;2023-05-12T03:33:45;93930.66;;;6.01;100.00
39223;BME280;24936;46.328;11.026;2023-05-12T03:36:10;93926.25;;;5.90;100.00
39223;BME280;24936;46.328;11.026;2023-05-12T03:38:36;93925.09;;;5.83;100.00
39223;BME280;24936;46.328;11.026;2023-05-12T03:41:05;93929.72;;;5.79;100.00
39223;BME280;24936;46.328;11.026;2023-05-12T03:43:31;93934.00;;;5.80;100.00
39223;BME280;24936;46.328;11.026;2023-05-12T03:45:57;93932.25;;;5.81;100.00
39223;BME280;24936;46.328;11.026;2023-05-12T03:48:22;93930.66;;;5.90;100.00
39223;BME280;24936;46.328;11.026;2023-05-12T03:50:48;93935.88;;;6.01;100.00
39223;BME280;24936;46.328;11.026;2023-05-12T03:53:13;93928.16;;;5.88;100.00
39223;BME280;24936;46.328;11.026;2023-05-12T03:55:39;93928.66;;;5.82;100.00
39223;BME280;24936;46.328;11.026;2023-05-12T03:58:05;93934.94;;;5.79;100.00
39223;BME280;24936;46.328;11.026;2023-05-12T04:00:31;93930.91;;;5.87;100.00
39223;BME280;24936;46.328;11.026;2023-05-12T04:02:57;93934.56;;;5.95;100.00
39223;BME280;24936;46.328;11.026;2023-05-12T04:05:23;93922.28;;;6.07;100.00
39223;BME280;24936;46.328;11.026;2023-05-12T04:07:48;93929.44;;;5.94;100.00
39223;BME280;24936;46.328;11.026;2023-05-12T04:10:14;93930.66;;;5.90;100.00
39223;BME280;24936;46.328;11.026;2023-05-12T04:12:40;93925.16;;;5.93;100.00
39223;BME280;24936;46.328;11.026;2023-05-12T04:15:05;93928.03;;;6.01;100.00
39223;BME280;24936;46.328;11.026;2023-05-12T04:17:31;93923.78;;;5.89;100.00
39223;BME280;24936;46.328;11.026;2023-05-12T04:19:56;93930.66;;;6.01;100.00
39223;BME280;24936;46.328;11.026;2023-05-12T04:22:22;93928.16;;;5.88;100.00
39223;BME280;24936;46.328;11.026;2023-05-12T04:24:47;93927.72;;;5.83;100.00
39223;BME280;24936;46.328;11.026;2023-05-12T04:27:13;93924.13;;;5.95;100.00
39223;BME280;24936;46.328;11.026;2023-05-12T04:29:38;93938.34;;;6.03;100.00
39223;BME280;24936;46.328;11.026;2023-05-12T04:32:04;93941.22;;;5.88;100.00
39223;BME280;24936;46.328;11.026;2023-05-12T04:34:30;93942.06;;;6.21;100.00
39223;BME280;24936;46.328;11.026;2023-05-12T04:36:55;93944.38;;;6.15;100.00
39223;BME280;24936;46.328;11.026;2023-05-12T04:39:21;93946.03;;;6.16;100.00
39223;BME280;24936;46.328;11.026;2023-05-12T04:41:46;93952.16;;;6.26;100.00
39223;BME280;24936;46.328;11.026;2023-05-12T04:44:12;93955.28;;;6.20;100.00
39223;BME280;24936;46.328;11.026;2023-05-12T04:46:37;93954.94;;;6.34;100.00
39223;BME280;24936;46.328;11.026;2023-05-12T04:49:03;93951.75;;;6.31;100.00
39223;BME280;24936;46.328;11.026;2023-05-12T04:51:28;93957.38;;;6.26;100.00
39223;BME280;24936;46.328;11.026;2023-05-12T04:53:54;93956.28;;;6.28;100.00
39223;BME280;24936;46.328;11.026;2023-05-12T04:56:19;93964.97;;;6.29;100.00
39223;BME280;24936;46.328;11.026;2023-05-12T04:58:46;93963.56;;;6.25;100.00
39223;BME280;24936;46.328;11.026;2023-05-12T05:01:11;93966.06;;;6.26;100.00
39223;BME280;24936;46.328;11.026;2023-05-12T05:03:38;93966.13;;;6.36;100.00
39223;BME280;24936;46.328;11.026;2023-05-12T05:06:04;93960.25;;;6.44;100.00
39223;BME280;24936;46.328;11.026;2023-05-12T05:08:29;93964.66;;;6.43;100.00
39223;BME280;24936;46.328;11.026;2023-05-12T05:10:55;93960.47;;;6.52;100.00
39223;BME280;24936;46.328;11.026;2023-05-12T05:13:20;93962.81;;;6.55;100.00
39223;BME280;24936;46.328;11.026;2023-05-12T05:15:50;93960.00;;;6.47;100.00
39223;BME280;24936;46.328;11.026;2023-05-12T05:18:16;93953.19;;;6.56;100.00
39223;BME280;24936;46.328;11.026;2023-05-12T05:20:42;93963.13;;;6.62;100.00
39223;BME280;24936;46.328;11.026;2023-05-12T05:23:08;93964.78;;;6.63;100.00
39223;BME280;24936;46.328;11.026;2023-05-12T05:25:33;93957.00;;;6.73;100.00
39223;BME280;24936;46.328;11.026;2023-05-12T05:27:59;93969.50;;;6.69;100.00
39223;BME280;24936;46.328;11.026;2023-05-12T05:30:25;93968.03;;;6.77;100.00
39223;BME280;24936;46.328;11.026;2023-05-12T05:32:50;93967.78;;;6.58;100.00
39223;BME280;24936;46.328;11.026;2023-05-12T05:35:16;93974.34;;;6.53;100.00
39223;BME280;24936;46.328;11.026;2023-05-12T05:37:41;93970.53;;;6.57;100.00
39223;BME280;24936;46.328;11.026;2023-05-12T05:40:07;93981.31;;;6.64;100.00
39223;BME280;24936;46.328;11.026;2023-05-12T05:42:33;93976.72;;;6.56;100.00
39223;BME280;24936;46.328;11.026;2023-05-12T05:44:58;93970.53;;;6.57;100.00
39223;BME280;24936;46.328;11.026;2023-05-12T05:47:24;93967.34;;;6.75;100.00
39223;BME280;24936;46.328;11.026;2023-05-12T05:49:49;93970.06;;;6.73;100.00
39223;BME280;24936;46.328;11.026;2023-05-12T05:52:15;93972.75;;;6.83;100.00
39223;BME280;24936;46.328;11.026;2023-05-12T05:54:40;93971.25;;;6.90;100.00
39223;BME280;24936;46.328;11.026;2023-05-12T05:57:06;93972.16;;;7.00;100.00
39223;BME280;24936;46.328;11.026;2023-05-12T05:59:31;93960.34;;;7.06;100.00
39223;BME280;24936;46.328;11.026;2023-05-12T06:01:57;93970.59;;;7.19;100.00
39223;BME280;24936;46.328;11.026;2023-05-12T06:04:23;93970.78;;;7.27;100.00
39223;BME280;24936;46.328;11.026;2023-05-12T06:06:48;93963.53;;;7.41;100.00
39223;BME280;24936;46.328;11.026;2023-05-12T06:09:14;93963.53;;;7.41;100.00
39223;BME280;24936;46.328;11.026;2023-05-12T06:11:40;93970.50;;;7.30;100.00
39223;BME280;24936;46.328;11.026;2023-05-12T06:14:05;93969.75;;;7.49;100.00
39223;BME280;24936;46.328;11.026;2023-05-12T06:16:31;93969.06;;;7.47;100.00
39223;BME280;24936;46.328;11.026;2023-05-12T06:18:56;93972.78;;;7.45;100.00
39223;BME280;24936;46.328;11.026;2023-05-12T06:21:22;93968.44;;;7.34;100.00
39223;BME280;24936;46.328;11.026;2023-05-12T06:23:47;93979.94;;;7.53;100.00
39223;BME280;24936;46.328;11.026;2023-05-12T06:26:13;93978.31;;;7.52;100.00
39223;BME280;24936;46.328;11.026;2023-05-12T06:28:39;93985.19;;;7.53;100.00
39223;BME280;24936;46.328;11.026;2023-05-12T06:31:07;93983.84;;;7.68;100.00
39223;BME280;24936;46.328;11.026;2023-05-12T06:33:33;93984.06;;;7.86;100.00
39223;BME280;24936;46.328;11.026;2023-05-12T06:35:59;93986.53;;;7.88;100.00
39223;BME280;24936;46.328;11.026;2023-05-12T06:38:24;93994.25;;;7.99;100.00
39223;BME280;24936;46.328;11.026;2023-05-12T06:40:50;93995.13;;;8.19;100.00
39223;BME280;24936;46.328;11.026;2023-05-12T06:43:15;93994.44;;;8.37;100.00
39223;BME280;24936;46.328;11.026;2023-05-12T06:45:42;93994.31;;;8.48;99.67
39223;BME280;24936;46.328;11.026;2023-05-12T06:48:07;93999.31;;;8.61;99.10
39223;BME280;24936;46.328;11.026;2023-05-12T06:50:33;93994.53;;;9.04;98.70
39223;BME280;24936;46.328;11.026;2023-05-12T06:52:59;93988.03;;;9.08;97.64
39223;BME280;24936;46.328;11.026;2023-05-12T06:55:25;93999.44;;;9.27;97.52
39223;BME280;24936;46.328;11.026;2023-05-12T06:57:50;93997.56;;;9.09;95.40
39223;BME280;24936;46.328;11.026;2023-05-12T07:00:23;93987.59;;;9.23;95.61
39223;BME280;24936;46.328;11.026;2023-05-12T07:02:49;93991.19;;;9.22;95.08
39223;BME280;24936;46.328;11.026;2023-05-12T07:05:15;93983.22;;;9.03;94.74
39223;BME280;24936;46.328;11.026;2023-05-12T07:07:40;93993.66;;;9.13;95.48
39223;BME280;24936;46.328;11.026;2023-05-12T07:10:07;93990.66;;;9.08;94.55
39223;BME280;24936;46.328;11.026;2023-05-12T07:12:33;93988.56;;;9.12;93.75
39223;BME280;24936;46.328;11.026;2023-05-12T07:14:58;93992.59;;;9.06;95.37
39223;BME280;24936;46.328;11.026;2023-05-12T07:17:24;93992.03;;;9.12;96.08
39223;BME280;24936;46.328;11.026;2023-05-12T07:19:49;94003.06;;;9.26;96.63
39223;BME280;24936;46.328;11.026;2023-05-12T07:22:15;94003.34;;;9.23;95.25
39223;BME280;24936;46.328;11.026;2023-05-12T07:24:41;93996.72;;;9.18;93.65
39223;BME280;24936;46.328;11.026;2023-05-12T07:27:07;94001.00;;;9.10;92.22
39223;BME280;24936;46.328;11.026;2023-05-12T07:29:33;94004.38;;;9.40;94.64
39223;BME280;24936;46.328;11.026;2023-05-12T07:31:58;94001.16;;;9.18;92.92
39223;BME280;24936;46.328;11.026;2023-05-12T07:34:24;94006.59;;;9.34;91.23
39223;BME280;24936;46.328;11.026;2023-05-12T07:36:50;94009.09;;;9.36;92.21
39223;BME280;24936;46.328;11.026;2023-05-12T07:39:15;94005.00;;;9.24;92.18
39223;BME280;24936;46.328;11.026;2023-05-12T07:41:47;94008.88;;;9.20;93.32
39223;BME280;24936;46.328;11.026;2023-05-12T07:44:13;94006.16;;;9.01;92.04
39223;BME280;24936;46.328;11.026;2023-05-12T07:46:38;94006.28;;;9.00;93.00
39223;BME280;24936;46.328;11.026;2023-05-12T07:49:04;94004.69;;;9.27;94.02
39223;BME280;24936;46.328;11.026;2023-05-12T07:51:31;94000.81;;;9.31;93.99
39223;BME280;24936;46.328;11.026;2023-05-12T07:53:56;94007.97;;;9.39;92.16
39223;BME280;24936;46.328;11.026;2023-05-12T07:56:23;94005.69;;;9.26;93.03
39223;BME280;24936;46.328;11.026;2023-05-12T07:58:48;94015.16;;;9.37;93.17
39223;BME280;24936;46.328;11.026;2023-05-12T08:01:14;94008.94;;;9.38;91.38
39223;BME280;24936;46.328;11.026;2023-05-12T08:03:39;94015.34;;;9.63;90.90
39223;BME280;24936;46.328;11.026;2023-05-12T08:06:05;94001.34;;;10.18;92.04
39223;BME280;24936;46.328;11.026;2023-05-12T08:08:32;94008.44;;;10.36;90.24
39223;BME280;24936;46.328;11.026;2023-05-12T08:10:58;94000.00;;;10.42;87.31
39223;BME280;24936;46.328;11.026;2023-05-12T08:13:23;94002.56;;;10.96;85.87
39223;BME280;24936;46.328;11.026;2023-05-12T08:15:50;94003.97;;;11.35;86.70
39223;BME280;24936;46.328;11.026;2023-05-12T08:18:16;93998.34;;;11.04;86.82
39223;BME280;24936;46.328;11.026;2023-05-12T08:20:42;93998.22;;;11.66;86.72
39223;BME280;24936;46.328;11.026;2023-05-12T08:23:07;93993.31;;;11.80;86.10
39223;BME280;24936;46.328;11.026;2023-05-12T08:25:33;93990.53;;;11.81;85.32
39223;BME280;24936;46.328;11.026;2023-05-12T08:28:00;93991.56;;;11.88;81.25
39223;BME280;24936;46.328;11.026;2023-05-12T08:30:26;93986.91;;;11.82;85.21
39223;BME280;24936;46.328;11.026;2023-05-12T08:32:53;93993.06;;;11.56;84.32
39223;BME280;24936;46.328;11.026;2023-05-12T08:35:19;93988.94;;;11.27;84.88
39223;BME280;24936;46.328;11.026;2023-05-12T08:37:44;93993.91;;;11.30;84.99
39223;BME280;24936;46.328;11.026;2023-05-12T08:40:23;93994.03;;;11.55;83.91
39223;BME280;24936;46.328;11.026;2023-05-12T08:42:56;93990.09;;;11.94;82.37
39223;BME280;24936;46.328;11.026;2023-05-12T08:45:27;93981.84;;;12.65;82.42
39223;BME280;24936;46.328;11.026;2023-05-12T08:47:54;93986.81;;;12.84;81.49
39223;BME280;24936;46.328;11.026;2023-05-12T08:50:21;93980.34;;;13.04;80.51
39223;BME280;24936;46.328;11.026;2023-05-12T08:52:47;93977.06;;;12.52;79.57
39223;BME280;24936;46.328;11.026;2023-05-12T08:55:14;93982.34;;;12.85;78.39
39223;BME280;24936;46.328;11.026;2023-05-12T08:57:39;93980.19;;;13.13;80.91
39223;BME280;24936;46.328;11.026;2023-05-12T09:00:10;93980.63;;;13.25;78.71
39223;BME280;24936;46.328;11.026;2023-05-12T09:02:38;93975.06;;;13.76;78.50
39223;BME280;24936;46.328;11.026;2023-05-12T09:05:05;93975.84;;;13.37;78.67
39223;BME280;24936;46.328;11.026;2023-05-12T09:07:31;93975.56;;;13.15;78.02
39223;BME280;24936;46.328;11.026;2023-05-12T09:09:57;93982.47;;;13.08;76.41
39223;BME280;24936;46.328;11.026;2023-05-12T09:12:24;93975.19;;;13.35;77.41
39223;BME280;24936;46.328;11.026;2023-05-12T09:15:01;93967.56;;;13.49;77.15
39223;BME280;24936;46.328;11.026;2023-05-12T09:17:27;93977.44;;;13.71;77.00
39223;BME280;24936;46.328;11.026;2023-05-12T09:19:53;93973.75;;;13.72;75.79
39223;BME280;24936;46.328;11.026;2023-05-12T09:22:30;93980.22;;;13.70;76.39
39223;BME280;24936;46.328;11.026;2023-05-12T09:24:56;93979.50;;;13.28;77.55
39223;BME280;24936;46.328;11.026;2023-05-12T09:27:28;93975.22;;;13.10;78.47
39223;BME280;24936;46.328;11.026;2023-05-12T09:29:54;93978.38;;;12.48;78.38
39223;BME280;24936;46.328;11.026;2023-05-12T09:32:29;93991.47;;;12.15;79.92
39223;BME280;24936;46.328;11.026;2023-05-12T09:34:56;93993.94;;;12.08;80.95
39223;BME280;24936;46.328;11.026;2023-05-12T09:37:29;93988.22;;;12.21;79.53
39223;BME280;24936;46.328;11.026;2023-05-12T09:40:03;93979.53;;;12.53;79.52
39223;BME280;24936;46.328;11.026;2023-05-12T09:42:30;93979.81;;;12.34;78.85
39223;BME280;24936;46.328;11.026;2023-05-12T09:45:14;93984.66;;;12.63;79.38
39223;BME280;24936;46.328;11.026;2023-05-12T09:47:39;93985.16;;;12.83;76.91
39223;BME280;24936;46.328;11.026;2023-05-12T09:50:06;93977.72;;;12.79;77.62
39223;BME280;24936;46.328;11.026;2023-05-12T09:52:37;93977.22;;;12.67;76.32
39223;BME280;24936;46.328;11.026;2023-05-12T09:55:09;93970.75;;;12.45;78.69
39223;BME280;24936;46.328;11.026;2023-05-12T09:57:38;93970.78;;;12.61;77.98
39223;BME280;24936;46.328;11.026;2023-05-12T10:00:09;93974.22;;;12.62;78.42
39223;BME280;24936;46.328;11.026;2023-05-12T10:02:39;93971.44;;;12.72;78.98
39223;BME280;24936;46.328;11.026;2023-05-12T10:05:09;93971.94;;;12.59;79.22
39223;BME280;24936;46.328;11.026;2023-05-12T10:07:38;93975.88;;;12.63;79.77
39223;BME280;24936;46.328;11.026;2023-05-12T10:10:05;93981.50;;;12.51;78.99
39223;BME280;24936;46.328;11.026;2023-05-12T10:12:32;93979.22;;;12.73;78.82
39223;BME280;24936;46.328;11.026;2023-05-12T10:15:02;93972.78;;;12.67;77.28
39223;BME280;24936;46.328;11.026;2023-05-12T10:17:27;93976.84;;;13.20;76.12
39223;BME280;24936;46.328;11.026;2023-05-12T11:58:55;94000.00;;;12.93;81.63
39223;BME280;24936;46.328;11.026;2023-05-12T12:08:18;93995.97;;;14.34;79.01
39223;BME280;24936;46.328;11.026;2023-05-12T12:10:44;93992.66;;;14.41;77.76
39223;BME280;24936;46.328;11.026;2023-05-12T12:16:14;93985.25;;;15.06;75.83
39223;BME280;24936;46.328;11.026;2023-05-12T12:18:40;93983.41;;;16.19;71.20
39223;BME280;24936;46.328;11.026;2023-05-12T12:21:05;93973.94;;;16.54;65.73
39223;BME280;24936;46.328;11.026;2023-05-12T12:23:30;93967.09;;;18.43;58.22
39223;BME280;24936;46.328;11.026;2023-05-12T12:25:56;93961.91;;;19.17;54.49
39223;BME280;24936;46.328;11.026;2023-05-12T12:28:21;93972.31;;;19.86;59.52
39223;BME280;24936;46.328;11.026;2023-05-12T12:30:46;93960.41;;;19.89;47.32
39223;BME280;24936;46.328;11.026;2023-05-12T12:33:12;93962.09;;;20.35;55.04
39223;BME280;24936;46.328;11.026;2023-05-12T12:35:37;93957.53;;;21.13;53.64
39223;BME280;24936;46.328;11.026;2023-05-12T12:38:03;93955.47;;;19.92;57.14
39223;BME280;24936;46.328;11.026;2023-05-12T12:40:29;93958.63;;;19.42;57.82
39223;BME280;24936;46.328;11.026;2023-05-12T12:42:54;93962.78;;;18.42;58.92
39223;BME280;24936;46.328;11.026;2023-05-12T12:45:20;93969.72;;;17.24;60.97
39223;BME280;24936;46.328;11.026;2023-05-12T12:47:45;93959.16;;;17.09;62.08
39223;BME280;24936;46.328;11.026;2023-05-12T12:50:10;93954.81;;;17.94;58.28
39223;BME280;24936;46.328;11.026;2023-05-12T12:52:36;93952.19;;;18.76;59.18
39223;BME280;24936;46.328;11.026;2023-05-12T12:55:04;93950.44;;;19.10;55.03
39223;BME280;24936;46.328;11.026;2023-05-12T12:57:29;93955.91;;;17.71;55.98
39223;BME280;24936;46.328;11.026;2023-05-12T12:59:55;93949.91;;;17.27;56.23
39223;BME280;24936;46.328;11.026;2023-05-12T13:02:20;93955.38;;;16.97;55.58
39223;BME280;24936;46.328;11.026;2023-05-12T13:04:46;93951.53;;;16.56;54.57
39223;BME280;24936;46.328;11.026;2023-05-12T13:07:12;93952.88;;;17.17;66.70
39223;BME280;24936;46.328;11.026;2023-05-12T13:09:37;93946.53;;;17.82;55.25
39223;BME280;24936;46.328;11.026;2023-05-12T13:12:03;93949.69;;;17.57;54.86
39223;BME280;24936;46.328;11.026;2023-05-12T13:14:29;93945.38;;;18.46;56.30
39223;BME280;24936;46.328;11.026;2023-05-12T13:16:54;93946.25;;;18.74;56.63
39223;BME280;24936;46.328;11.026;2023-05-12T13:19:20;93943.22;;;19.04;56.83
39223;BME280;24936;46.328;11.026;2023-05-12T13:21:45;93943.38;;;18.55;57.76
39223;BME280;24936;46.328;11.026;2023-05-12T13:24:11;93948.44;;;18.37;55.54
39223;BME280;24936;46.328;11.026;2023-05-12T13:26:36;93946.03;;;17.01;62.17
39223;BME280;24936;46.328;11.026;2023-05-12T13:29:02;93935.63;;;17.35;64.45
39223;BME280;24936;46.328;11.026;2023-05-12T13:31:28;93931.97;;;17.78;60.03
39223;BME280;24936;46.328;11.026;2023-05-12T13:33:54;93933.97;;;17.97;57.59
39223;BME280;24936;46.328;11.026;2023-05-12T13:36:20;93925.94;;;18.53;52.58
39223;BME280;24936;46.328;11.026;2023-05-12T13:38:46;93921.47;;;18.04;57.80
39223;BME280;24936;46.328;11.026;2023-05-12T13:41:11;93925.84;;;18.19;57.49
39223;BME280;24936;46.328;11.026;2023-05-12T13:43:37;93929.59;;;18.38;56.80
39223;BME280;24936;46.328;11.026;2023-05-12T13:46:02;93926.38;;;18.76;57.26
39223;BME280;24936;46.328;11.026;2023-05-12T13:48:27;93926.59;;;17.99;54.16
39223;BME280;24936;46.328;11.026;2023-05-12T13:50:53;93921.50;;;18.11;54.18
39223;BME280;24936;46.328;11.026;2023-05-12T13:53:18;93913.66;;;18.65;54.76
39223;BME280;24936;46.328;11.026;2023-05-12T13:55:44;93917.75;;;18.61;54.97
39223;BME280;24936;46.328;11.026;2023-05-12T13:58:09;93910.13;;;18.38;55.03
39223;BME280;24936;46.328;11.026;2023-05-12T14:00:35;93913.63;;;17.48;50.17
39223;BME280;24936;46.328;11.026;2023-05-12T14:03:00;93908.97;;;17.63;55.20
39223;BME280;24936;46.328;11.026;2023-05-12T14:05:26;93902.63;;;17.57;52.80
39223;BME280;24936;46.328;11.026;2023-05-12T14:07:51;93903.44;;;17.58;48.50
39223;BME280;24936;46.328;11.026;2023-05-12T14:10:17;93908.94;;;18.74;51.63
39223;BME280;24936;46.328;11.026;2023-05-12T14:12:42;93904.22;;;18.69;50.78
39223;BME280;24936;46.328;11.026;2023-05-12T14:15:10;93908.31;;;18.52;50.10
39223;BME280;24936;46.328;11.026;2023-05-12T14:17:35;93911.16;;;18.50;49.86
39223;BME280;24936;46.328;11.026;2023-05-12T14:20:01;93910.59;;;18.82;55.89
39223;BME280;24936;46.328;11.026;2023-05-12T14:22:32;93912.03;;;18.77;50.40
39223;BME280;24936;46.328;11.026;2023-05-12T14:24:57;93906.91;;;18.76;51.76
39223;BME280;24936;46.328;11.026;2023-05-12T14:27:23;93910.34;;;18.43;54.90
39223;BME280;24936;46.328;11.026;2023-05-12T14:29:48;93904.97;;;18.23;52.39
39223;BME280;24936;46.328;11.026;2023-05-12T14:32:14;93903.72;;;18.18;51.22
39223;BME280;24936;46.328;11.026;2023-05-12T14:34:40;93910.97;;;18.45;53.23